Historyczne dane pomiarowe

Dodano dane terminowe – wersja testowa.

Dane z okresu 1951-2019

Wersja bazy: 1.34 [2019-03-16, lista zmian], aktualizacja planowana na 2019-04-15

Dane meteo z obszaru Polski uzyskane na podstawie danych udostępnionych przez Instytut Meteorologii i Gospodarki Wodnej – Państwowy Instytut Badawczy.

 

Wybierz Datę:    

       

TemperaturaWilgotnośćWiatrCiśnienieOpadyŚniegCzas trwania zjawisk
 Stacja t tx tn tng RH VA  wxwx mslp ppp RRR   cm mm wxwxwxwxwxwxwx
1987-08-14 12.4 15.1 5.9- 91.3- 6.0 1.7---- 3.5------------
1987-08-13 13.1 18.9 6.5- 75.5- 2.7 2.7---- 0.0------------
1987-08-12 12.1 17.9 6.0- 78.3- 4.3 3.3---- 0.0------------
1987-08-11 13.7 15.7 11.4- 85.0- 4.0 2.7---- 0.0------------
1987-08-10 14.5 20.2 12.9- 94.5- 6.3 2.0---- 13.2------------
1987-08-09 16.2 24.2 8.6- 76.3- 4.7 2.7---- 1.8------------
1987-08-08 15.0 20.4 5.5- 75.5- 1.3 2.3---- 0.0------------
1987-08-07 10.4 14.2 5.2- 89.8- 5.7 1.7---- 2.0------------
1987-08-06 10.4 15.4 8.9- 91.3- 4.3 4.3---- 11.3------------
1987-08-05 12.5 16.9 8.6- 86.8- 3.7 3.0---- 0.3------------
1987-08-04 15.7 19.6 12.6- 82.5- 6.7 2.7---- 3.3------------
1987-08-03 15.3 20.5 11.6- 79.0- 5.0 3.0---- 0.0------------
1987-08-02 14.6 19.0 12.4- 78.5- 6.3 3.3---- 8.9------------
1987-08-01 15.0 21.0 9.4- 86.0- 5.7 4.0---- 2.3------------
1987-07-31 15.0 20.9 13.5- 99.8- 6.7 4.0---- 1.0------------
1987-07-30 18.1 21.9 11.5- 82.5- 3.3 1.7---- 4.2------------
1987-07-29 14.6 19.5 11.0- 78.8- 5.7 3.3---- 0.0------------
1987-07-28 13.7 15.6 12.4- 92.8- 5.7 4.3---- 0.8------------
1987-07-27 12.5 18.8 8.4- 83.8- 4.7 5.7---- 5.3------------
1987-07-26 12.8 20.7 10.7- 97.5- 7.3 1.7---- 11.0------------
1987-07-25 18.8 24.5 12.9- 84.0- 7.0 2.3---- 8.0------------
1987-07-24 20.3 25.5 17.9- 88.0- 5.3 2.0---- 3.0------------
1987-07-23 21.0 27.2 8.6- 82.3- 3.3 2.3---- 1.8------------
1987-07-22 19.0 23.7 11.0- 82.0- 3.7 2.7---- 0.0------------
1987-07-21 19.5 26.0 9.9- 81.3- 5.0 3.7---- 1.8------------
1987-07-20 19.6 21.6 17.6- 85.5- 3.0 3.7---- 0.0------------
1987-07-19 21.5 27.3 18.8- 89.0- 3.3 3.0---- 13.9------------
1987-07-18 24.2 31.0 11.7- 76.8- 2.7 2.0---- 30.0------------
1987-07-17 22.5 31.0 9.2- 79.5- 5.3 4.0---- 0.0------------
1987-07-16 20.6 27.3 9.4- 78.5- 2.7 2.7---- 2.0------------
1987-07-15 17.8 25.0 10.6- 73.8- 2.0 2.7---- 0.0------------
1987-07-14 16.6 22.5 11.4- 70.8- 1.0 2.0---- 0.0------------
1987-07-13 19.3 23.9 10.1- 77.8- 4.3 2.3---- 0.0------------
1987-07-12 20.6 28.8 11.9- 81.5- 3.3 4.0---- 7.6------------
1987-07-11 16.8 23.7 8.1- 74.8- 1.0 4.3---- 0.0------------
1987-07-10 15.4 24.3 10.4- 78.8- 3.3 4.7---- 0.0------------
1987-07-09 17.3 25.3 15.8- 95.0- 8.0 2.3---- 6.2------------
1987-07-08 21.7 29.0 12.1- 66.5- 0.3 2.7---- 0.0------------
1987-07-07 19.2 27.0 10.2- 68.5- 0.0 2.3---- 0.0------------
1987-07-06 18.6 24.6 10.4- 66.5- 0.7 3.3---- 0.0------------
1987-07-05 16.5 20.7 13.2- 83.5- 4.3 1.7---- 0.0------------
1987-07-04 19.9 24.5 15.4- 72.3- 3.7 4.3---- 0.0------------
1987-07-03 18.5 22.5 16.0- 79.8- 7.3 2.7---- 0.0------------
1987-07-02 17.9 26.2 16.0- 90.0- 7.0 3.0---- 2.2------------
1987-07-01 24.5 31.0 18.5- 74.0- 1.0 3.0---- 0.0------------
1987-06-30 23.2 30.2 15.1- 80.5- 0.0 1.0---- 0.0------------
1987-06-29 22.1 26.8 16.9- 76.8- 1.3 1.0---- 0.0------------
1987-06-28 18.8 24.7 11.4- 79.5- 3.7 2.0---- 0.5------------
1987-06-27 17.6 21.1 15.3- 91.5- 6.0 3.0---- 0.0------------
1987-06-26 16.8 23.6 7.8- 74.0- 3.3 4.7---- 14.1------------
1987-06-25 14.9 17.7 12.8- 78.8- 4.0 4.0---- 0.0------------
1987-06-24 15.7 18.7 12.1- 76.0- 5.7 2.0---- 0.4------------
1987-06-23 15.7 19.8 12.6- 80.3- 6.0 2.7---- 0.0------------
1987-06-22 15.6 19.5 11.9- 88.8- 6.3 3.3---- 0.0------------
1987-06-21 16.7 23.2 8.8- 76.3- 3.3 1.3---- 0.0------------
1987-06-20 12.8 20.0 8.9- 84.8- 5.7 3.3---- 0.7------------
1987-06-19 13.6 17.4 7.4- 73.5- 3.0 4.7---- 0.8------------
1987-06-18 10.7 13.4 6.5- 85.0- 4.0 5.7---- 1.5------------
1987-06-17 10.3 13.9 7.5- 84.8- 2.7 2.7---- 0.0------------
1987-06-16 13.7 23.0 10.6- 95.3- 7.7 3.7---- 8.2------------
394.9 ms

 

Źródłem pochodzenia danych jest Instytut Meteorologii i Gospodarki Wodnej – Państwowy Instytut Badawczy. Dane Instytutu Meteorologii i Gospodarki Wodnej – Państwowego Instytutu Badawczego zostały przetworzone.

Dane źródłowe można odnaleźć na stronie https://dane.imgw.pl